createdAt,value
2023-08-04T00:01:34.633Z,3.53
2023-08-04T00:04:01.195Z,3.17
2023-08-04T00:06:27.694Z,2.90
2023-08-04T00:08:54.063Z,3.37
2023-08-04T00:11:20.403Z,2.80
2023-08-04T00:13:46.764Z,2.70
2023-08-04T00:16:13.220Z,2.47
2023-08-04T00:18:39.632Z,2.73
2023-08-04T00:21:05.982Z,3.17
2023-08-04T00:23:32.394Z,3.00
2023-08-04T00:25:58.722Z,2.53
2023-08-04T00:28:25.263Z,2.80
2023-08-04T00:30:51.669Z,3.20
2023-08-04T00:33:18.058Z,2.80
2023-08-04T00:35:44.594Z,2.67
2023-08-04T00:38:11.005Z,2.80
2023-08-04T00:40:37.705Z,2.43
2023-08-04T00:43:04.097Z,2.40
2023-08-04T00:45:32.174Z,3.03
2023-08-04T00:47:59.186Z,2.80
2023-08-04T00:50:26.580Z,3.00
2023-08-04T00:52:53.203Z,3.03
2023-08-04T00:55:19.805Z,2.63
2023-08-04T00:57:47.847Z,2.93
2023-08-04T01:00:15.057Z,2.73
2023-08-04T01:02:42.003Z,2.83
2023-08-04T01:05:08.854Z,3.30
2023-08-04T01:07:51.558Z,3.10
2023-08-04T01:10:20.369Z,3.50
2023-08-04T01:12:56.574Z,3.33
2023-08-04T01:15:25.493Z,3.00
2023-08-04T01:17:51.888Z,3.07
2023-08-04T01:20:18.378Z,2.97
2023-08-04T01:22:44.817Z,3.00
2023-08-04T01:25:11.177Z,3.17
2023-08-04T01:27:45.550Z,2.97
2023-08-04T01:30:16.560Z,3.40
2023-08-04T01:32:43.258Z,3.30
2023-08-04T01:35:10.762Z,3.50
2023-08-04T01:37:37.181Z,3.13
2023-08-04T01:40:03.859Z,3.63
2023-08-04T01:42:30.259Z,3.40
2023-08-04T01:44:56.605Z,3.80
2023-08-04T01:47:22.956Z,3.33
2023-08-04T01:49:49.341Z,3.43
2023-08-04T01:52:15.727Z,3.40
2023-08-04T01:54:42.219Z,3.00
2023-08-04T01:57:08.600Z,3.33
2023-08-04T01:59:34.961Z,3.87
2023-08-04T02:02:01.295Z,3.40
2023-08-04T02:04:27.679Z,2.90
2023-08-04T02:06:54.032Z,3.50
2023-08-04T02:09:20.405Z,3.73
2023-08-04T02:11:47.111Z,3.80
2023-08-04T02:14:13.992Z,3.30
2023-08-04T02:16:40.363Z,3.77
2023-08-04T02:19:08.914Z,3.57
2023-08-04T02:21:35.532Z,4.20
2023-08-04T02:24:02.844Z,3.60
2023-08-04T02:26:29.459Z,3.87
2023-08-04T02:28:56.459Z,4.03
2023-08-04T02:31:24.848Z,3.97
2023-08-04T02:33:51.789Z,3.60
2023-08-04T02:36:18.341Z,3.50
2023-08-04T02:38:44.735Z,3.40
2023-08-04T02:41:11.805Z,3.83
2023-08-04T02:43:38.295Z,3.80
2023-08-04T02:46:04.909Z,4.03
2023-08-04T02:48:32.326Z,4.10
2023-08-04T02:51:03.650Z,3.73
2023-08-04T02:53:31.683Z,3.83
2023-08-04T02:55:58.237Z,3.90
2023-08-04T02:58:25.675Z,3.30
2023-08-04T03:00:52.331Z,3.93
2023-08-04T03:03:19.569Z,3.37
2023-08-04T03:05:47.094Z,3.50
2023-08-04T03:08:13.664Z,3.30
2023-08-04T03:10:42.643Z,3.50
2023-08-04T03:13:12.098Z,3.40
2023-08-04T03:15:38.567Z,3.40
2023-08-04T03:18:04.939Z,3.63
2023-08-04T03:20:38.058Z,3.23
2023-08-04T03:23:05.231Z,3.60
2023-08-04T03:25:32.166Z,3.20
2023-08-04T03:27:58.507Z,3.30
2023-08-04T03:30:24.857Z,3.63
2023-08-04T03:32:51.291Z,3.17
2023-08-04T03:35:17.681Z,3.40
2023-08-04T03:37:44.041Z,3.13
2023-08-04T03:40:10.969Z,2.70
2023-08-04T03:42:39.137Z,3.20
2023-08-04T03:45:08.770Z,3.47
2023-08-04T03:47:36.087Z,2.80
2023-08-04T03:50:03.678Z,4.10
2023-08-04T03:52:30.109Z,3.17
2023-08-04T03:54:56.567Z,3.63
2023-08-04T03:57:22.972Z,3.30
2023-08-04T03:59:49.762Z,3.10
2023-08-04T04:02:16.127Z,3.47
2023-08-04T04:04:42.501Z,3.47
2023-08-04T04:07:08.867Z,3.83
2023-08-04T04:09:35.222Z,2.83
2023-08-04T04:12:01.724Z,3.73
2023-08-04T04:14:28.082Z,3.10
2023-08-04T04:16:54.432Z,3.30
2023-08-04T04:19:20.821Z,3.87
2023-08-04T04:21:47.328Z,3.43
2023-08-04T04:24:13.968Z,3.20
2023-08-04T04:26:40.331Z,3.10
2023-08-04T04:29:06.695Z,2.90
2023-08-04T04:31:33.094Z,2.97
2023-08-04T04:33:59.449Z,3.30
2023-08-04T04:36:25.812Z,3.00
2023-08-04T04:38:52.180Z,3.80
2023-08-04T04:41:18.529Z,2.93
2023-08-04T04:43:44.879Z,2.87
2023-08-04T04:46:11.600Z,3.20
2023-08-04T04:48:38.011Z,3.13
2023-08-04T04:51:04.366Z,3.50
2023-08-04T04:53:30.766Z,2.63
2023-08-04T04:55:57.572Z,2.90
2023-08-04T04:58:23.924Z,3.23
2023-08-04T05:00:50.348Z,2.90
2023-08-04T05:03:16.750Z,2.80
2023-08-04T05:05:45.029Z,2.80
2023-08-04T05:08:11.375Z,2.87
2023-08-04T05:10:37.823Z,2.60
2023-08-04T05:13:04.184Z,2.53
2023-08-04T05:15:30.514Z,2.97
2023-08-04T05:17:56.912Z,2.70
2023-08-04T05:20:23.461Z,2.90
2023-08-04T05:22:50.468Z,2.73
2023-08-04T05:25:16.932Z,3.10
2023-08-04T05:27:43.277Z,2.60
2023-08-04T05:30:10.419Z,2.43
2023-08-04T05:32:36.979Z,2.47
2023-08-04T05:35:03.417Z,2.40
2023-08-04T05:37:29.777Z,2.97
2023-08-04T05:39:56.150Z,2.93
2023-08-04T05:42:22.514Z,2.53
2023-08-04T05:44:48.860Z,2.40
2023-08-04T05:47:15.290Z,2.43
2023-08-04T05:49:41.632Z,2.37
2023-08-04T05:52:08.200Z,2.67
2023-08-04T05:54:34.575Z,2.37
2023-08-04T05:57:00.929Z,2.50
2023-08-04T05:59:27.274Z,2.23
2023-08-04T06:01:54.389Z,2.30
2023-08-04T06:04:22.416Z,2.40
2023-08-04T06:06:49.160Z,2.93
2023-08-04T06:09:15.608Z,2.33
2023-08-04T06:11:42.014Z,2.47
2023-08-04T06:14:08.426Z,2.30
2023-08-04T06:16:34.902Z,2.10
2023-08-04T06:19:01.316Z,2.20
2023-08-04T06:21:29.500Z,2.13
2023-08-04T06:23:55.869Z,2.20
2023-08-04T06:26:24.198Z,2.07
2023-08-04T06:28:50.935Z,2.10
2023-08-04T06:31:17.416Z,2.43
2023-08-04T06:33:44.627Z,2.10
2023-08-04T06:36:11.022Z,2.27
2023-08-04T06:38:37.376Z,2.00
2023-08-04T06:41:03.750Z,2.30
2023-08-04T06:43:30.122Z,2.13
2023-08-04T06:45:56.492Z,2.20
2023-08-04T06:48:25.190Z,2.10
2023-08-04T06:50:52.732Z,2.07
2023-08-04T06:53:19.067Z,2.00
2023-08-04T06:55:47.328Z,2.10
2023-08-04T06:58:15.021Z,2.10
2023-08-04T07:00:41.410Z,1.87
2023-08-04T07:03:09.460Z,1.90
2023-08-04T07:05:35.987Z,2.50
2023-08-04T07:08:02.693Z,1.80
2023-08-04T07:10:29.045Z,1.83
2023-08-04T07:12:55.390Z,2.00
2023-08-04T07:15:21.787Z,2.10
2023-08-04T07:17:48.232Z,1.80
2023-08-04T07:20:15.127Z,2.00
2023-08-04T07:22:41.696Z,1.90
2023-08-04T07:25:08.504Z,2.10
2023-08-04T07:27:34.924Z,2.40
2023-08-04T07:30:01.387Z,2.37
2023-08-04T07:32:27.836Z,2.00
2023-08-04T07:34:54.208Z,2.10
2023-08-04T07:37:20.585Z,2.47
2023-08-04T07:39:46.955Z,2.60
2023-08-04T07:42:13.331Z,2.13
2023-08-04T07:44:39.666Z,2.07
2023-08-04T07:47:06.030Z,2.30
2023-08-04T07:49:32.405Z,2.00
2023-08-04T07:51:58.774Z,2.07
2023-08-04T07:54:25.367Z,2.10
2023-08-04T07:56:51.781Z,2.23
2023-08-04T07:59:18.168Z,2.00
2023-08-04T08:01:44.547Z,2.10
2023-08-04T08:04:13.282Z,2.10
2023-08-04T08:06:41.585Z,1.90
2023-08-04T08:09:08.649Z,2.03
2023-08-04T08:11:35.116Z,2.27
2023-08-04T08:14:01.506Z,1.70
2023-08-04T08:16:27.890Z,2.20
2023-08-04T08:18:54.279Z,1.90
2023-08-04T08:21:20.616Z,2.03
2023-08-04T08:23:47.252Z,1.93
2023-08-04T08:26:13.642Z,1.70
2023-08-04T08:28:40.036Z,1.70
2023-08-04T08:31:06.542Z,1.77
2023-08-04T08:33:32.923Z,2.40
2023-08-04T08:36:00.040Z,1.90
2023-08-04T08:38:26.497Z,2.40
2023-08-04T08:40:52.881Z,1.90
2023-08-04T08:43:19.283Z,2.20
2023-08-04T08:45:45.958Z,1.50
2023-08-04T08:48:12.901Z,1.90
2023-08-04T08:50:40.685Z,1.70
2023-08-04T08:53:15.749Z,1.77
2023-08-04T08:55:42.620Z,1.70
2023-08-04T08:58:12.292Z,1.70
2023-08-04T09:00:38.704Z,1.80
2023-08-04T09:03:06.200Z,1.70
2023-08-04T09:05:33.369Z,1.47
2023-08-04T09:07:59.770Z,1.60
2023-08-04T09:10:26.238Z,1.77
2023-08-04T09:12:52.985Z,2.03
2023-08-04T09:15:19.938Z,1.70
2023-08-04T09:17:46.788Z,1.73
2023-08-04T09:20:28.266Z,1.83
2023-08-04T09:22:54.902Z,1.60
2023-08-04T09:25:21.446Z,1.73
2023-08-04T09:27:51.068Z,1.73
2023-08-04T09:30:18.252Z,1.97
2023-08-04T09:32:46.478Z,1.80
2023-08-04T09:35:13.835Z,1.50
2023-08-04T09:37:40.931Z,1.60
2023-08-04T09:40:18.705Z,1.60
2023-08-04T09:42:45.404Z,1.67
2023-08-04T09:45:16.485Z,1.90
2023-08-04T09:47:51.353Z,1.43
2023-08-04T09:50:19.373Z,1.93
2023-08-04T09:52:46.131Z,1.70
2023-08-04T09:55:12.678Z,1.83
2023-08-04T09:57:40.102Z,1.50
2023-08-04T10:00:08.902Z,1.50
2023-08-04T10:02:35.653Z,1.50
2023-08-04T10:05:03.251Z,1.87
2023-08-04T10:07:30.425Z,1.40
2023-08-04T10:09:56.809Z,1.30
2023-08-04T10:12:23.739Z,1.50
2023-08-04T10:14:50.117Z,1.50
2023-08-04T10:17:16.522Z,1.70
2023-08-04T10:19:43.023Z,1.67
2023-08-04T10:22:10.606Z,1.77
2023-08-04T10:24:38.216Z,1.60
2023-08-04T10:27:15.937Z,1.40
2023-08-04T10:29:42.779Z,1.37
2023-08-04T10:32:10.265Z,1.30
2023-08-04T10:34:38.469Z,1.47
2023-08-04T10:37:14.172Z,1.30
2023-08-04T10:39:56.943Z,1.93
2023-08-04T10:42:28.269Z,1.50
2023-08-04T10:45:05.888Z,1.50
2023-08-04T10:47:32.376Z,1.20
2023-08-04T10:50:00.017Z,1.37
2023-08-04T10:52:27.439Z,1.20
2023-08-04T10:54:54.290Z,1.40
2023-08-04T10:57:22.719Z,2.00
2023-08-04T10:59:50.037Z,1.40
2023-08-04T11:02:23.776Z,1.33
2023-08-04T11:04:51.842Z,1.10
2023-08-04T11:07:20.298Z,1.27
2023-08-04T11:09:47.246Z,1.30
2023-08-04T11:12:15.292Z,1.40
2023-08-04T11:14:42.306Z,1.43
2023-08-04T11:17:20.000Z,1.40
2023-08-04T11:19:48.394Z,1.50
2023-08-04T11:22:16.931Z,1.40
2023-08-04T11:24:44.027Z,1.27
2023-08-04T11:27:12.541Z,1.17
2023-08-04T11:29:39.346Z,1.73
2023-08-04T11:32:21.798Z,1.40
2023-08-04T11:34:52.297Z,1.50
2023-08-04T11:37:20.871Z,1.40
2023-08-04T11:39:47.364Z,1.40
2023-08-04T11:42:14.524Z,1.20
2023-08-04T11:44:42.032Z,1.50
2023-08-04T11:47:10.010Z,1.40
2023-08-04T11:49:37.417Z,1.20
2023-08-04T11:52:11.605Z,1.20
2023-08-04T11:54:52.426Z,1.20
2023-08-04T11:57:19.369Z,1.27
2023-08-04T11:59:52.923Z,1.30
2023-08-04T12:02:19.993Z,1.73
2023-08-04T12:04:46.967Z,1.30
2023-08-04T12:07:13.730Z,1.47
2023-08-04T12:09:40.206Z,1.50
2023-08-04T12:12:07.782Z,1.30
2023-08-04T12:14:47.719Z,1.43
2023-08-04T12:17:35.957Z,1.53
2023-08-04T12:20:02.547Z,1.37
2023-08-04T12:22:28.954Z,1.60
2023-08-04T12:25:03.881Z,1.30
2023-08-04T12:27:31.038Z,1.43
2023-08-04T12:29:57.667Z,1.17
2023-08-04T12:32:24.250Z,1.30
2023-08-04T12:34:50.788Z,1.40
2023-08-04T12:37:17.291Z,1.37
2023-08-04T12:39:45.873Z,1.43
2023-08-04T12:42:12.290Z,1.63
2023-08-04T12:44:38.716Z,1.33
2023-08-04T12:47:05.649Z,1.50
2023-08-04T12:49:32.060Z,1.50
2023-08-04T12:51:58.438Z,1.60
2023-08-04T12:54:24.880Z,1.70
2023-08-04T12:56:51.257Z,1.30
2023-08-04T12:59:17.611Z,1.40
2023-08-04T13:01:44.148Z,1.60
2023-08-04T13:04:11.206Z,1.60
2023-08-04T13:06:40.601Z,1.50
2023-08-04T13:09:06.982Z,2.10
2023-08-04T13:11:33.332Z,1.80
2023-08-04T13:13:59.731Z,1.90
2023-08-04T13:16:26.153Z,1.70
2023-08-04T13:18:53.533Z,1.63
2023-08-04T13:21:19.864Z,1.67
2023-08-04T13:23:47.974Z,1.70
2023-08-04T13:26:14.522Z,1.80
2023-08-04T13:28:43.101Z,1.70
2023-08-04T13:31:13.176Z,1.83
2023-08-04T13:33:39.796Z,2.03
2023-08-04T13:36:06.145Z,1.80
2023-08-04T13:38:32.486Z,2.20
2023-08-04T13:40:59.156Z,1.50
2023-08-04T13:43:25.626Z,1.70
2023-08-04T13:45:51.959Z,1.40
2023-08-04T13:48:18.435Z,1.87
2023-08-04T13:50:45.274Z,1.63
2023-08-04T13:53:11.668Z,1.50
2023-08-04T13:55:39.109Z,1.47
2023-08-04T13:58:05.543Z,1.50
2023-08-04T14:00:31.918Z,1.63
2023-08-04T14:02:58.317Z,1.40
2023-08-04T14:05:24.797Z,1.63
2023-08-04T14:07:51.773Z,1.67
2023-08-04T14:10:18.283Z,1.90
2023-08-04T14:12:44.630Z,1.53
2023-08-04T14:15:10.969Z,1.60
2023-08-04T14:17:37.419Z,1.90
2023-08-04T14:20:06.251Z,1.50
2023-08-04T14:22:33.190Z,1.67
2023-08-04T14:24:59.625Z,1.50
2023-08-04T14:27:31.214Z,1.30
2023-08-04T14:29:58.263Z,1.30
2023-08-04T14:32:24.879Z,1.50
2023-08-04T14:34:51.445Z,1.47
2023-08-04T14:37:17.896Z,1.27
2023-08-04T14:39:44.365Z,1.27
2023-08-04T14:42:10.727Z,1.30
2023-08-04T14:44:37.304Z,1.40
2023-08-04T14:47:04.047Z,1.30
2023-08-04T14:49:30.492Z,1.20
2023-08-04T14:51:57.214Z,1.40
2023-08-04T14:54:23.642Z,1.60
2023-08-04T14:56:51.367Z,2.13
2023-08-04T14:59:17.841Z,1.63
2023-08-04T15:01:44.321Z,1.50
2023-08-04T15:04:10.791Z,1.63
2023-08-04T15:06:37.189Z,1.50
2023-08-04T15:09:03.601Z,1.50
2023-08-04T15:11:30.019Z,1.60
2023-08-04T15:13:56.441Z,1.30
2023-08-04T15:16:22.813Z,1.73
2023-08-04T15:18:49.196Z,1.70
2023-08-04T15:21:15.570Z,1.83
2023-08-04T15:23:41.967Z,2.10
2023-08-04T15:26:08.484Z,2.20
2023-08-04T15:28:34.900Z,2.37
2023-08-04T15:31:06.101Z,2.13
2023-08-04T15:33:36.465Z,2.20
2023-08-04T15:36:05.834Z,1.90
2023-08-04T15:38:32.268Z,2.10
2023-08-04T15:41:03.256Z,2.30
2023-08-04T15:43:29.736Z,2.57
2023-08-04T15:45:56.319Z,2.47
2023-08-04T15:48:23.454Z,2.57
2023-08-04T15:50:50.006Z,2.03
2023-08-04T15:53:16.851Z,2.77
2023-08-04T15:55:43.212Z,2.00
2023-08-04T15:58:09.678Z,1.90
2023-08-04T16:00:36.185Z,2.00
2023-08-04T16:03:02.990Z,1.80
2023-08-04T16:05:29.472Z,2.40
2023-08-04T16:07:55.793Z,2.37
2023-08-04T16:10:23.488Z,2.50
2023-08-04T16:12:49.851Z,2.77
2023-08-04T16:15:16.614Z,2.50
2023-08-04T16:17:43.064Z,2.10
2023-08-04T16:20:09.614Z,2.20
2023-08-04T16:22:36.116Z,2.10
2023-08-04T16:25:02.495Z,2.00
2023-08-04T16:27:28.837Z,2.00
2023-08-04T16:29:55.224Z,2.43
2023-08-04T16:32:21.625Z,1.90
2023-08-04T16:34:48.015Z,2.00
2023-08-04T16:37:14.390Z,2.07
2023-08-04T16:39:40.784Z,2.30
2023-08-04T16:42:07.382Z,1.87
2023-08-04T16:44:33.781Z,2.20
2023-08-04T16:47:00.153Z,2.07
2023-08-04T16:49:26.633Z,2.10
2023-08-04T16:51:52.995Z,2.27
2023-08-04T16:54:20.243Z,1.93
2023-08-04T16:56:47.024Z,2.00
2023-08-04T16:59:13.592Z,1.90
2023-08-04T17:01:40.137Z,1.97
2023-08-04T17:04:07.130Z,2.00
2023-08-04T17:06:33.642Z,2.03
2023-08-04T17:08:59.978Z,2.00
2023-08-04T17:11:26.530Z,2.20
2023-08-04T17:13:52.976Z,1.90
2023-08-04T17:16:19.863Z,1.97
2023-08-04T17:18:46.801Z,1.80
2023-08-04T17:21:13.147Z,2.00
2023-08-04T17:23:39.502Z,1.97
2023-08-04T17:26:06.548Z,2.63
2023-08-04T17:28:33.051Z,2.20
2023-08-04T17:31:03.438Z,2.63
2023-08-04T17:33:31.133Z,2.37
2023-08-04T17:35:58.410Z,2.33
2023-08-04T17:38:24.771Z,2.37
2023-08-04T17:41:00.736Z,2.67
2023-08-04T17:43:27.115Z,2.50
2023-08-04T17:45:53.669Z,3.03
2023-08-04T17:48:20.335Z,2.73
2023-08-04T17:50:58.890Z,2.97
2023-08-04T17:53:25.630Z,2.50
2023-08-04T17:55:52.443Z,2.70
2023-08-04T17:58:19.134Z,2.63
2023-08-04T18:00:46.000Z,2.30
2023-08-04T18:03:13.005Z,2.70
2023-08-04T18:05:40.485Z,2.80
2023-08-04T18:08:08.050Z,2.30
2023-08-04T18:10:45.332Z,2.87
2023-08-04T18:13:12.815Z,2.67
2023-08-04T18:15:39.369Z,2.37
2023-08-04T18:18:06.062Z,2.40
2023-08-04T18:20:32.665Z,2.73
2023-08-04T18:22:59.154Z,2.57
2023-08-04T18:25:25.982Z,2.80
2023-08-04T18:27:52.575Z,2.33
2023-08-04T18:30:19.105Z,2.60
2023-08-04T18:32:45.633Z,2.50
2023-08-04T18:35:12.702Z,2.80
2023-08-04T18:37:39.356Z,2.63
2023-08-04T18:40:06.862Z,2.70
2023-08-04T18:42:36.915Z,2.63
2023-08-04T18:45:03.766Z,2.80
2023-08-04T18:47:30.195Z,2.77
2023-08-04T18:49:56.631Z,2.70
2023-08-04T18:52:22.983Z,2.43
2023-08-04T18:54:49.350Z,2.53
2023-08-04T18:57:15.696Z,2.10
2023-08-04T18:59:42.080Z,3.30
2023-08-04T19:02:08.462Z,2.77
2023-08-04T19:04:35.032Z,3.03
2023-08-04T19:07:01.397Z,2.67
2023-08-04T19:09:27.859Z,2.73
2023-08-04T19:11:54.214Z,2.70
2023-08-04T19:14:20.637Z,2.83
2023-08-04T19:16:47.740Z,2.30
2023-08-04T19:19:14.447Z,2.67
2023-08-04T19:21:40.832Z,2.60
2023-08-04T19:24:07.173Z,2.43
2023-08-04T19:26:33.520Z,2.43
2023-08-04T19:29:00.266Z,2.60
2023-08-04T19:31:26.669Z,2.50
2023-08-04T19:33:53.078Z,2.40
2023-08-04T19:36:19.490Z,2.70
2023-08-04T19:38:45.870Z,2.50
2023-08-04T19:41:12.228Z,2.60
2023-08-04T19:43:38.574Z,2.60
2023-08-04T19:46:05.834Z,2.70
2023-08-04T19:48:32.578Z,2.83
2023-08-04T19:51:00.160Z,3.13
2023-08-04T19:53:27.334Z,2.83
2023-08-04T19:56:08.292Z,2.60
2023-08-04T19:58:39.908Z,2.63
2023-08-04T20:01:09.415Z,2.00
2023-08-04T20:03:36.263Z,2.60
2023-08-04T20:06:02.674Z,2.93
2023-08-04T20:08:29.064Z,2.40
2023-08-04T20:11:08.668Z,2.87
2023-08-04T20:13:36.134Z,2.60
2023-08-04T20:16:13.636Z,2.50
2023-08-04T20:18:40.496Z,2.80
2023-08-04T20:21:07.166Z,3.20
2023-08-04T20:23:37.050Z,3.07
2023-08-04T20:26:04.380Z,2.80
2023-08-04T20:28:31.311Z,2.83
2023-08-04T20:30:59.216Z,2.90
2023-08-04T20:33:25.623Z,2.80
2023-08-04T20:36:03.162Z,2.97
2023-08-04T20:38:32.395Z,3.60
2023-08-04T20:41:08.595Z,3.10
2023-08-04T20:43:35.348Z,3.07
2023-08-04T20:46:01.918Z,3.60
2023-08-04T20:48:28.935Z,3.13
2023-08-04T20:50:55.519Z,3.27
2023-08-04T20:53:22.315Z,3.27
2023-08-04T20:55:56.643Z,3.17
2023-08-04T20:58:33.653Z,3.47
2023-08-04T21:01:04.413Z,3.17
2023-08-04T21:03:30.984Z,3.07
2023-08-04T21:05:57.478Z,2.93
2023-08-04T21:08:24.148Z,3.10
2023-08-04T21:10:52.699Z,3.27
2023-08-04T21:13:19.636Z,3.60
2023-08-04T21:15:48.066Z,3.90
2023-08-04T21:18:15.788Z,4.27
2023-08-04T21:20:48.180Z,3.93
2023-08-04T21:23:16.495Z,4.10
2023-08-04T21:25:43.036Z,3.50
2023-08-04T21:28:09.600Z,3.67
2023-08-04T21:30:36.177Z,3.30
2023-08-04T21:33:03.399Z,3.27
2023-08-04T21:35:30.049Z,3.07
2023-08-04T21:37:56.389Z,2.67
2023-08-04T21:40:22.908Z,3.33
2023-08-04T21:42:49.529Z,3.17
2023-08-04T21:45:15.925Z,3.40
2023-08-04T21:47:46.423Z,3.40
2023-08-04T21:50:12.909Z,3.10
2023-08-04T21:52:39.518Z,3.10
2023-08-04T21:55:06.772Z,2.50
2023-08-04T21:57:33.116Z,2.90
2023-08-04T21:59:59.468Z,2.80
2023-08-04T22:02:25.916Z,3.77
2023-08-04T22:04:52.502Z,3.10
2023-08-04T22:07:18.855Z,3.37
2023-08-04T22:09:48.860Z,3.37
2023-08-04T22:12:15.608Z,3.20
2023-08-04T22:14:41.962Z,2.90
2023-08-04T22:17:08.394Z,2.70
2023-08-04T22:19:34.812Z,2.60
2023-08-04T22:22:01.222Z,2.87
2023-08-04T22:24:27.645Z,2.67
2023-08-04T22:26:54.022Z,2.50
2023-08-04T22:29:20.398Z,2.63
2023-08-04T22:31:46.748Z,2.53
2023-08-04T22:34:13.121Z,2.87
2023-08-04T22:36:40.092Z,3.17
2023-08-04T22:39:06.502Z,2.70
2023-08-04T22:41:32.857Z,2.90
2023-08-04T22:43:59.221Z,3.07
2023-08-04T22:46:25.627Z,3.70
2023-08-04T22:48:52.004Z,3.50
2023-08-04T22:51:18.456Z,3.00
2023-08-04T22:53:44.830Z,3.10
2023-08-04T22:56:11.219Z,2.80
2023-08-04T22:58:37.676Z,2.77
2023-08-04T23:01:07.284Z,3.30
2023-08-04T23:03:33.848Z,3.60
2023-08-04T23:06:00.405Z,3.67
2023-08-04T23:08:29.229Z,3.50
2023-08-04T23:10:58.928Z,4.60
2023-08-04T23:13:26.612Z,4.70
2023-08-04T23:15:55.757Z,4.67
2023-08-04T23:18:26.964Z,4.27
2023-08-04T23:20:53.337Z,3.73
2023-08-04T23:23:20.225Z,4.27
2023-08-04T23:25:46.984Z,3.50
2023-08-04T23:28:14.125Z,3.50
2023-08-04T23:30:45.093Z,3.43
2023-08-04T23:33:15.568Z,2.80
2023-08-04T23:35:43.533Z,3.43
2023-08-04T23:38:10.098Z,2.97
2023-08-04T23:40:36.527Z,3.17
2023-08-04T23:43:02.959Z,2.80
2023-08-04T23:45:29.352Z,3.23
2023-08-04T23:47:55.749Z,3.00
2023-08-04T23:50:22.207Z,3.03
2023-08-04T23:52:48.627Z,3.20
2023-08-04T23:55:15.001Z,3.40
2023-08-04T23:57:41.462Z,3.10
